createdAt,value
2019-02-11T18:35:14.090Z,23.59
2019-02-11T18:40:14.706Z,23.45
2019-02-11T18:45:14.039Z,23.35
2019-02-11T18:50:14.045Z,23.27
2019-02-11T19:00:15.993Z,24.24
2019-02-11T19:05:15.710Z,23.91
2019-02-11T19:10:15.857Z,23.74
2019-02-11T19:15:15.730Z,23.68
2019-02-11T19:20:15.726Z,23.62
2019-02-11T19:25:16.048Z,23.54
2019-02-11T19:30:15.712Z,23.48
2019-02-11T19:35:16.099Z,23.44
2019-02-11T19:40:15.749Z,23.41
2019-02-11T19:45:16.072Z,23.38
2019-02-11T19:50:15.758Z,23.38
2019-02-11T19:55:15.762Z,23.36
2019-02-11T20:00:15.790Z,23.35
2019-02-11T20:05:15.797Z,23.37
2019-02-11T20:10:15.782Z,23.38
2019-02-11T20:15:15.802Z,23.39
2019-02-11T20:20:15.781Z,23.43
2019-02-11T20:25:16.119Z,23.48
2019-02-11T20:30:16.110Z,23.53
2019-02-11T20:35:15.782Z,23.56
2019-02-11T20:40:15.802Z,23.59
2019-02-11T20:47:34.919Z,23.65
2019-02-11T20:52:31.769Z,23.66
2019-02-11T20:57:31.777Z,23.63
2019-02-11T21:02:31.781Z,23.59
2019-02-11T21:07:32.115Z,23.55
2019-02-11T21:12:31.836Z,23.52
2019-02-11T21:17:31.829Z,23.50
2019-02-11T21:22:31.911Z,23.47
2019-02-11T21:27:31.793Z,23.45
2019-02-11T21:32:32.427Z,23.43
2019-02-11T21:37:31.899Z,23.42
2019-02-11T21:42:32.227Z,23.40
2019-02-11T21:47:32.451Z,23.40
2019-02-11T21:52:31.847Z,23.39
2019-02-11T21:57:32.408Z,23.37
2019-02-11T22:02:31.813Z,23.37
2019-02-11T22:07:31.841Z,23.36
2019-02-11T22:12:31.846Z,23.35
2019-02-11T22:17:31.824Z,23.34
2019-02-11T22:22:32.254Z,23.32
2019-02-11T22:27:31.806Z,23.32
2019-02-11T22:32:31.817Z,23.31
2019-02-11T22:37:31.954Z,23.31
2019-02-11T22:42:31.820Z,23.30
2019-02-11T22:47:31.874Z,23.28
2019-02-11T22:52:31.830Z,23.27
2019-02-11T22:57:31.811Z,23.26
2019-02-11T23:02:31.859Z,23.25
2019-02-11T23:07:32.123Z,23.25
2019-02-11T23:12:31.822Z,23.24
2019-02-11T23:17:32.193Z,23.23
2019-02-11T23:22:31.813Z,23.22
2019-02-11T23:27:32.334Z,23.22
2019-02-11T23:32:31.816Z,23.20
2019-02-11T23:37:32.323Z,23.18
2019-02-11T23:42:31.804Z,23.19
2019-02-11T23:47:32.213Z,23.18
2019-02-11T23:52:31.819Z,23.17
2019-02-11T23:57:32.216Z,23.16
